YBYL weather

Baryulgil Airstrip
Baryulgil, New South Wales, Australia

Public forecast

Using degrees Celsius for public forecast. Weather courtesy of forecast.io.

Closest aviation weather report (METAR) to Baryulgil Airstrip

Closest report is Casino Airport, 31.1 nm (57.6 km) NE. Retrieved 2019/10/19 03:00 UTC (44 minutes ago):

YCAS 190300Z AUTO 03007KT 350V080 //// // ////// 30/11 Q1012

Closest aviation forecast (TAF) to Baryulgil Airstrip

Closest forecast is Gold Coast Airport, 78.7 nm (145.8 km) NE. Retrieved 2019-10-19 00:00 UTC (4 hours ago):

TAF YBCG 182310Z 1900/1924 03010KT 9999 SCT035 FM190600 36010KT 9999 -SHRA SCT020 BKN035 FM190900 23005KT 9999 FEW010 FM192100 18017KT 9999 FEW030